sensor_id;sensor_type;location;lat;lon;timestamp;temperature;humidity
11855;DHT22;5987;53.140;8.904;2023-07-13T00:00:41;16.70;99.90
11855;DHT22;5987;53.140;8.904;2023-07-13T00:03:45;16.60;99.90
11855;DHT22;5987;53.140;8.904;2023-07-13T00:06:49;16.60;99.90
11855;DHT22;5987;53.140;8.904;2023-07-13T00:09:52;16.60;99.90
11855;DHT22;5987;53.140;8.904;2023-07-13T00:12:58;16.60;99.90
11855;DHT22;5987;53.140;8.904;2023-07-13T00:16:01;16.60;99.90
11855;DHT22;5987;53.140;8.904;2023-07-13T00:19:05;16.50;99.90
11855;DHT22;5987;53.140;8.904;2023-07-13T00:22:09;16.50;99.90
11855;DHT22;5987;53.140;8.904;2023-07-13T00:25:13;16.40;99.90
11855;DHT22;5987;53.140;8.904;2023-07-13T00:28:20;16.40;99.90
11855;DHT22;5987;53.140;8.904;2023-07-13T00:31:24;16.30;99.90
11855;DHT22;5987;53.140;8.904;2023-07-13T00:34:29;16.50;99.90
11855;DHT22;5987;53.140;8.904;2023-07-13T00:37:34;16.40;99.90
11855;DHT22;5987;53.140;8.904;2023-07-13T00:40:38;16.40;99.90
11855;DHT22;5987;53.140;8.904;2023-07-13T00:43:43;16.40;99.90
11855;DHT22;5987;53.140;8.904;2023-07-13T00:46:48;16.40;99.90
11855;DHT22;5987;53.140;8.904;2023-07-13T00:49:52;16.40;99.90
11855;DHT22;5987;53.140;8.904;2023-07-13T00:52:56;16.40;99.90
11855;DHT22;5987;53.140;8.904;2023-07-13T00:56:01;16.40;99.90
11855;DHT22;5987;53.140;8.904;2023-07-13T00:59:09;16.30;99.90
11855;DHT22;5987;53.140;8.904;2023-07-13T01:02:15;16.30;99.90
11855;DHT22;5987;53.140;8.904;2023-07-13T01:05:21;16.30;99.90
11855;DHT22;5987;53.140;8.904;2023-07-13T01:08:26;16.20;99.90
11855;DHT22;5987;53.140;8.904;2023-07-13T01:11:30;16.30;99.90
11855;DHT22;5987;53.140;8.904;2023-07-13T01:14:35;16.20;99.90
11855;DHT22;5987;53.140;8.904;2023-07-13T01:17:39;16.10;99.90
11855;DHT22;5987;53.140;8.904;2023-07-13T01:20:53;16.10;99.90
11855;DHT22;5987;53.140;8.904;2023-07-13T01:23:58;16.20;99.90
11855;DHT22;5987;53.140;8.904;2023-07-13T01:27:02;16.20;99.90
11855;DHT22;5987;53.140;8.904;2023-07-13T01:30:08;16.20;99.90
11855;DHT22;5987;53.140;8.904;2023-07-13T01:33:13;16.20;99.90
11855;DHT22;5987;53.140;8.904;2023-07-13T01:36:20;16.20;99.90
11855;DHT22;5987;53.140;8.904;2023-07-13T01:39:24;16.20;99.90
11855;DHT22;5987;53.140;8.904;2023-07-13T01:42:28;16.10;99.90
11855;DHT22;5987;53.140;8.904;2023-07-13T01:45:32;16.10;99.90
11855;DHT22;5987;53.140;8.904;2023-07-13T01:48:37;16.10;99.90
11855;DHT22;5987;53.140;8.904;2023-07-13T01:51:42;16.10;99.90
11855;DHT22;5987;53.140;8.904;2023-07-13T01:54:46;16.30;99.90
11855;DHT22;5987;53.140;8.904;2023-07-13T01:57:49;16.20;99.90
11855;DHT22;5987;53.140;8.904;2023-07-13T02:00:53;16.20;99.90
11855;DHT22;5987;53.140;8.904;2023-07-13T02:03:57;16.20;99.90
11855;DHT22;5987;53.140;8.904;2023-07-13T02:07:03;16.00;99.90
11855;DHT22;5987;53.140;8.904;2023-07-13T02:10:09;16.10;99.90
11855;DHT22;5987;53.140;8.904;2023-07-13T02:13:13;16.10;99.90
11855;DHT22;5987;53.140;8.904;2023-07-13T02:16:17;16.10;99.90
11855;DHT22;5987;53.140;8.904;2023-07-13T02:19:21;16.10;99.90
11855;DHT22;5987;53.140;8.904;2023-07-13T02:22:26;16.10;99.90
11855;DHT22;5987;53.140;8.904;2023-07-13T02:25:30;16.10;99.90
11855;DHT22;5987;53.140;8.904;2023-07-13T02:28:34;16.00;99.90
11855;DHT22;5987;53.140;8.904;2023-07-13T02:31:38;16.00;99.90
11855;DHT22;5987;53.140;8.904;2023-07-13T02:34:42;16.10;99.90
11855;DHT22;5987;53.140;8.904;2023-07-13T02:37:47;16.10;99.90
11855;DHT22;5987;53.140;8.904;2023-07-13T02:40:51;16.00;99.90
11855;DHT22;5987;53.140;8.904;2023-07-13T02:43:54;16.00;99.90
11855;DHT22;5987;53.140;8.904;2023-07-13T02:47:05;15.90;99.90
11855;DHT22;5987;53.140;8.904;2023-07-13T02:50:09;15.90;99.90
11855;DHT22;5987;53.140;8.904;2023-07-13T02:53:14;15.90;99.90
11855;DHT22;5987;53.140;8.904;2023-07-13T02:56:22;15.80;99.90
11855;DHT22;5987;53.140;8.904;2023-07-13T02:59:26;15.70;99.90
11855;DHT22;5987;53.140;8.904;2023-07-13T03:02:30;15.70;99.90
11855;DHT22;5987;53.140;8.904;2023-07-13T03:05:34;15.80;99.90
11855;DHT22;5987;53.140;8.904;2023-07-13T03:08:41;15.80;99.90
11855;DHT22;5987;53.140;8.904;2023-07-13T03:11:46;15.90;99.90
11855;DHT22;5987;53.140;8.904;2023-07-13T03:14:50;15.90;99.90
11855;DHT22;5987;53.140;8.904;2023-07-13T03:17:54;15.90;99.90
11855;DHT22;5987;53.140;8.904;2023-07-13T03:20:58;15.80;99.90
11855;DHT22;5987;53.140;8.904;2023-07-13T03:24:04;15.80;99.90
11855;DHT22;5987;53.140;8.904;2023-07-13T03:27:08;15.90;99.90
11855;DHT22;5987;53.140;8.904;2023-07-13T03:30:12;15.80;99.90
11855;DHT22;5987;53.140;8.904;2023-07-13T03:33:16;16.00;99.90
11855;DHT22;5987;53.140;8.904;2023-07-13T03:36:22;15.90;99.90
11855;DHT22;5987;53.140;8.904;2023-07-13T03:39:28;16.10;99.90
11855;DHT22;5987;53.140;8.904;2023-07-13T03:42:32;16.10;99.90
11855;DHT22;5987;53.140;8.904;2023-07-13T03:45:37;16.10;99.90
11855;DHT22;5987;53.140;8.904;2023-07-13T03:48:43;16.20;99.90
11855;DHT22;5987;53.140;8.904;2023-07-13T03:51:47;16.30;99.90
11855;DHT22;5987;53.140;8.904;2023-07-13T03:54:56;16.40;99.90
11855;DHT22;5987;53.140;8.904;2023-07-13T04:01:30;16.60;99.90
11855;DHT22;5987;53.140;8.904;2023-07-13T04:04:34;16.50;99.90
11855;DHT22;5987;53.140;8.904;2023-07-13T04:07:38;16.60;99.90
11855;DHT22;5987;53.140;8.904;2023-07-13T04:10:45;16.60;99.90
11855;DHT22;5987;53.140;8.904;2023-07-13T04:13:49;16.60;99.90
11855;DHT22;5987;53.140;8.904;2023-07-13T04:16:53;16.60;99.90
11855;DHT22;5987;53.140;8.904;2023-07-13T04:19:57;16.60;99.90
11855;DHT22;5987;53.140;8.904;2023-07-13T04:23:01;16.70;99.90
11855;DHT22;5987;53.140;8.904;2023-07-13T04:26:07;16.70;99.90
11855;DHT22;5987;53.140;8.904;2023-07-13T04:29:12;16.80;99.90
11855;DHT22;5987;53.140;8.904;2023-07-13T04:32:16;16.80;99.90
11855;DHT22;5987;53.140;8.904;2023-07-13T04:35:20;16.80;99.90
11855;DHT22;5987;53.140;8.904;2023-07-13T04:38:26;16.90;99.90
11855;DHT22;5987;53.140;8.904;2023-07-13T04:41:32;17.00;99.90
11855;DHT22;5987;53.140;8.904;2023-07-13T04:44:36;17.00;99.90
11855;DHT22;5987;53.140;8.904;2023-07-13T04:47:40;17.00;99.90
11855;DHT22;5987;53.140;8.904;2023-07-13T04:50:45;17.00;99.90
11855;DHT22;5987;53.140;8.904;2023-07-13T04:53:49;17.10;99.90
11855;DHT22;5987;53.140;8.904;2023-07-13T04:57:01;17.10;99.90
11855;DHT22;5987;53.140;8.904;2023-07-13T05:00:06;17.30;99.90
11855;DHT22;5987;53.140;8.904;2023-07-13T05:03:11;17.40;99.90
11855;DHT22;5987;53.140;8.904;2023-07-13T05:06:15;17.40;99.90
11855;DHT22;5987;53.140;8.904;2023-07-13T05:09:18;17.40;99.90
11855;DHT22;5987;53.140;8.904;2023-07-13T05:12:24;17.60;99.90
11855;DHT22;5987;53.140;8.904;2023-07-13T05:15:27;17.70;99.90
11855;DHT22;5987;53.140;8.904;2023-07-13T05:18:32;17.80;99.90
11855;DHT22;5987;53.140;8.904;2023-07-13T05:21:36;17.80;99.90
11855;DHT22;5987;53.140;8.904;2023-07-13T05:24:39;17.90;99.90
11855;DHT22;5987;53.140;8.904;2023-07-13T05:27:50;18.00;99.90
11855;DHT22;5987;53.140;8.904;2023-07-13T05:31:07;18.10;99.90
11855;DHT22;5987;53.140;8.904;2023-07-13T05:34:12;18.20;99.90
11855;DHT22;5987;53.140;8.904;2023-07-13T05:37:16;18.40;99.90
11855;DHT22;5987;53.140;8.904;2023-07-13T05:40:20;18.40;99.90
11855;DHT22;5987;53.140;8.904;2023-07-13T05:43:25;18.50;99.90
11855;DHT22;5987;53.140;8.904;2023-07-13T05:46:30;18.40;99.90
11855;DHT22;5987;53.140;8.904;2023-07-13T05:49:34;18.50;99.90
11855;DHT22;5987;53.140;8.904;2023-07-13T05:52:38;18.60;99.90
11855;DHT22;5987;53.140;8.904;2023-07-13T05:55:42;18.50;99.90
11855;DHT22;5987;53.140;8.904;2023-07-13T05:58:49;18.50;99.90
11855;DHT22;5987;53.140;8.904;2023-07-13T06:01:53;18.60;99.90
11855;DHT22;5987;53.140;8.904;2023-07-13T06:04:57;18.70;99.90
11855;DHT22;5987;53.140;8.904;2023-07-13T06:08:00;19.10;99.90
11855;DHT22;5987;53.140;8.904;2023-07-13T06:11:06;19.50;99.90
11855;DHT22;5987;53.140;8.904;2023-07-13T06:14:14;19.60;99.90
11855;DHT22;5987;53.140;8.904;2023-07-13T06:17:18;19.90;99.90
11855;DHT22;5987;53.140;8.904;2023-07-13T06:20:22;20.20;99.90
11855;DHT22;5987;53.140;8.904;2023-07-13T06:23:26;20.60;99.90
11855;DHT22;5987;53.140;8.904;2023-07-13T06:26:29;20.90;99.90
11855;DHT22;5987;53.140;8.904;2023-07-13T06:29:35;20.70;99.90
11855;DHT22;5987;53.140;8.904;2023-07-13T06:32:39;20.40;99.90
11855;DHT22;5987;53.140;8.904;2023-07-13T06:35:43;20.40;99.90
11855;DHT22;5987;53.140;8.904;2023-07-13T06:38:47;20.40;99.90
11855;DHT22;5987;53.140;8.904;2023-07-13T06:41:50;20.80;99.90
11855;DHT22;5987;53.140;8.904;2023-07-13T06:44:55;21.10;99.90
11855;DHT22;5987;53.140;8.904;2023-07-13T06:47:59;21.10;99.90
11855;DHT22;5987;53.140;8.904;2023-07-13T06:51:03;21.10;99.90
11855;DHT22;5987;53.140;8.904;2023-07-13T06:54:07;21.20;99.90
11855;DHT22;5987;53.140;8.904;2023-07-13T06:57:11;21.00;99.90
11855;DHT22;5987;53.140;8.904;2023-07-13T07:00:17;20.60;99.90
11855;DHT22;5987;53.140;8.904;2023-07-13T07:03:21;20.40;99.90
11855;DHT22;5987;53.140;8.904;2023-07-13T07:06:25;20.30;99.90
11855;DHT22;5987;53.140;8.904;2023-07-13T07:09:29;20.30;99.90
11855;DHT22;5987;53.140;8.904;2023-07-13T07:12:33;20.20;99.90
11855;DHT22;5987;53.140;8.904;2023-07-13T07:15:38;20.60;99.90
11855;DHT22;5987;53.140;8.904;2023-07-13T07:18:42;20.80;99.90
11855;DHT22;5987;53.140;8.904;2023-07-13T07:21:46;20.90;99.90
11855;DHT22;5987;53.140;8.904;2023-07-13T07:24:49;21.10;99.90
11855;DHT22;5987;53.140;8.904;2023-07-13T07:27:53;21.30;99.90
11855;DHT22;5987;53.140;8.904;2023-07-13T07:31:01;21.30;99.90
11855;DHT22;5987;53.140;8.904;2023-07-13T07:34:08;21.20;99.90
11855;DHT22;5987;53.140;8.904;2023-07-13T07:37:13;21.00;99.90
11855;DHT22;5987;53.140;8.904;2023-07-13T07:40:20;21.00;99.90
11855;DHT22;5987;53.140;8.904;2023-07-13T07:43:27;20.70;99.90
11855;DHT22;5987;53.140;8.904;2023-07-13T07:46:32;20.30;99.90
11855;DHT22;5987;53.140;8.904;2023-07-13T07:49:36;20.10;99.90
11855;DHT22;5987;53.140;8.904;2023-07-13T07:52:40;20.10;99.90
11855;DHT22;5987;53.140;8.904;2023-07-13T07:55:46;20.20;99.90
11855;DHT22;5987;53.140;8.904;2023-07-13T07:58:53;20.50;99.90
11855;DHT22;5987;53.140;8.904;2023-07-13T08:02:01;20.60;99.90
11855;DHT22;5987;53.140;8.904;2023-07-13T08:05:08;20.60;99.90
11855;DHT22;5987;53.140;8.904;2023-07-13T08:08:16;20.70;99.90
11855;DHT22;5987;53.140;8.904;2023-07-13T08:11:21;20.70;99.90
11855;DHT22;5987;53.140;8.904;2023-07-13T08:14:28;21.10;99.90
11855;DHT22;5987;53.140;8.904;2023-07-13T08:17:53;21.60;99.90
11855;DHT22;5987;53.140;8.904;2023-07-13T08:20:59;21.50;99.90
11855;DHT22;5987;53.140;8.904;2023-07-13T08:24:06;21.40;99.90
11855;DHT22;5987;53.140;8.904;2023-07-13T08:27:10;21.60;99.90
11855;DHT22;5987;53.140;8.904;2023-07-13T08:30:14;22.10;99.90
11855;DHT22;5987;53.140;8.904;2023-07-13T08:33:21;22.30;99.90
11855;DHT22;5987;53.140;8.904;2023-07-13T08:36:26;22.10;99.90
11855;DHT22;5987;53.140;8.904;2023-07-13T08:39:30;22.20;99.90
11855;DHT22;5987;53.140;8.904;2023-07-13T08:42:37;21.80;99.90
11855;DHT22;5987;53.140;8.904;2023-07-13T08:45:50;22.00;99.90
11855;DHT22;5987;53.140;8.904;2023-07-13T08:49:03;22.50;99.90
11855;DHT22;5987;53.140;8.904;2023-07-13T08:52:14;22.80;99.90
11855;DHT22;5987;53.140;8.904;2023-07-13T08:55:28;22.90;99.90
11855;DHT22;5987;53.140;8.904;2023-07-13T08:58:36;23.20;99.90
11855;DHT22;5987;53.140;8.904;2023-07-13T09:05:30;23.90;99.90
11855;DHT22;5987;53.140;8.904;2023-07-13T09:08:46;24.30;99.90
11855;DHT22;5987;53.140;8.904;2023-07-13T09:12:04;24.30;99.90
11855;DHT22;5987;53.140;8.904;2023-07-13T09:15:26;24.20;99.90
11855;DHT22;5987;53.140;8.904;2023-07-13T09:18:36;24.00;99.90
11855;DHT22;5987;53.140;8.904;2023-07-13T09:21:45;23.50;99.90
11855;DHT22;5987;53.140;8.904;2023-07-13T09:24:57;23.00;99.90
11855;DHT22;5987;53.140;8.904;2023-07-13T09:28:15;23.30;99.90
11855;DHT22;5987;53.140;8.904;2023-07-13T09:31:26;23.60;99.90
11855;DHT22;5987;53.140;8.904;2023-07-13T09:34:37;23.70;99.90
11855;DHT22;5987;53.140;8.904;2023-07-13T09:37:44;24.10;99.90
11855;DHT22;5987;53.140;8.904;2023-07-13T09:41:02;24.70;99.90
11855;DHT22;5987;53.140;8.904;2023-07-13T09:44:27;25.10;99.90
11855;DHT22;5987;53.140;8.904;2023-07-13T09:47:38;25.30;99.90
11855;DHT22;5987;53.140;8.904;2023-07-13T09:50:43;24.90;99.90
11855;DHT22;5987;53.140;8.904;2023-07-13T09:53:49;24.60;99.90
11855;DHT22;5987;53.140;8.904;2023-07-13T09:56:57;24.80;99.90
11855;DHT22;5987;53.140;8.904;2023-07-13T10:00:02;24.50;99.90
11855;DHT22;5987;53.140;8.904;2023-07-13T10:03:18;24.10;99.90
11855;DHT22;5987;53.140;8.904;2023-07-13T10:06:24;23.90;99.90
11855;DHT22;5987;53.140;8.904;2023-07-13T10:09:29;24.00;99.90
11855;DHT22;5987;53.140;8.904;2023-07-13T10:12:37;23.70;99.90
11855;DHT22;5987;53.140;8.904;2023-07-13T10:15:41;23.40;99.90
11855;DHT22;5987;53.140;8.904;2023-07-13T10:18:47;23.30;99.90
11855;DHT22;5987;53.140;8.904;2023-07-13T10:21:55;23.30;99.90
11855;DHT22;5987;53.140;8.904;2023-07-13T10:25:04;23.70;99.90
11855;DHT22;5987;53.140;8.904;2023-07-13T10:28:25;24.10;99.90
11855;DHT22;5987;53.140;8.904;2023-07-13T10:31:41;24.50;99.90
11855;DHT22;5987;53.140;8.904;2023-07-13T10:34:47;24.40;99.90
11855;DHT22;5987;53.140;8.904;2023-07-13T10:37:57;24.10;99.90
11855;DHT22;5987;53.140;8.904;2023-07-13T10:41:14;23.80;99.90
11855;DHT22;5987;53.140;8.904;2023-07-13T10:44:24;23.60;99.90
11855;DHT22;5987;53.140;8.904;2023-07-13T10:47:31;23.30;99.90
11855;DHT22;5987;53.140;8.904;2023-07-13T10:50:38;23.20;99.90
11855;DHT22;5987;53.140;8.904;2023-07-13T10:53:45;23.20;99.90
11855;DHT22;5987;53.140;8.904;2023-07-13T10:57:07;22.80;99.90
11855;DHT22;5987;53.140;8.904;2023-07-13T11:00:20;22.20;99.90
11855;DHT22;5987;53.140;8.904;2023-07-13T11:03:27;21.80;99.90
11855;DHT22;5987;53.140;8.904;2023-07-13T11:06:37;21.60;99.90
11855;DHT22;5987;53.140;8.904;2023-07-13T11:09:43;21.60;99.90
11855;DHT22;5987;53.140;8.904;2023-07-13T11:12:53;21.40;99.90
11855;DHT22;5987;53.140;8.904;2023-07-13T11:15:57;21.20;99.90
11855;DHT22;5987;53.140;8.904;2023-07-13T11:19:38;21.10;99.90
11855;DHT22;5987;53.140;8.904;2023-07-13T11:22:47;21.10;99.90
11855;DHT22;5987;53.140;8.904;2023-07-13T11:25:52;20.90;99.90
11855;DHT22;5987;53.140;8.904;2023-07-13T11:28:57;20.60;99.90
11855;DHT22;5987;53.140;8.904;2023-07-13T11:32:22;20.60;99.90
11855;DHT22;5987;53.140;8.904;2023-07-13T11:35:29;20.70;99.90
11855;DHT22;5987;53.140;8.904;2023-07-13T11:38:38;20.70;99.90
11855;DHT22;5987;53.140;8.904;2023-07-13T11:41:45;20.50;99.90
11855;DHT22;5987;53.140;8.904;2023-07-13T11:44:54;20.60;99.90
11855;DHT22;5987;53.140;8.904;2023-07-13T11:48:22;20.50;99.90
11855;DHT22;5987;53.140;8.904;2023-07-13T11:51:35;20.40;99.90
11855;DHT22;5987;53.140;8.904;2023-07-13T11:54:46;20.10;99.90
11855;DHT22;5987;53.140;8.904;2023-07-13T11:57:58;19.90;99.90
11855;DHT22;5987;53.140;8.904;2023-07-13T12:01:10;19.60;99.90
11855;DHT22;5987;53.140;8.904;2023-07-13T12:04:25;19.60;99.90
11855;DHT22;5987;53.140;8.904;2023-07-13T12:07:32;19.60;99.90
11855;DHT22;5987;53.140;8.904;2023-07-13T12:10:36;19.40;99.90
11855;DHT22;5987;53.140;8.904;2023-07-13T12:13:40;19.00;99.90
11855;DHT22;5987;53.140;8.904;2023-07-13T12:16:46;18.90;99.90
11855;DHT22;5987;53.140;8.904;2023-07-13T12:19:52;18.70;99.90
11855;DHT22;5987;53.140;8.904;2023-07-13T12:22:56;18.30;99.90
11855;DHT22;5987;53.140;8.904;2023-07-13T12:26:02;18.10;99.90
11855;DHT22;5987;53.140;8.904;2023-07-13T12:29:08;18.00;99.90
11855;DHT22;5987;53.140;8.904;2023-07-13T12:32:20;18.00;99.90
11855;DHT22;5987;53.140;8.904;2023-07-13T12:35:24;18.10;99.90
11855;DHT22;5987;53.140;8.904;2023-07-13T12:38:32;18.10;99.90
11855;DHT22;5987;53.140;8.904;2023-07-13T12:41:36;18.00;99.90
11855;DHT22;5987;53.140;8.904;2023-07-13T12:44:41;18.00;99.90
11855;DHT22;5987;53.140;8.904;2023-07-13T12:47:49;18.00;99.90
11855;DHT22;5987;53.140;8.904;2023-07-13T12:51:01;18.20;99.90
11855;DHT22;5987;53.140;8.904;2023-07-13T12:54:16;18.20;99.90
11855;DHT22;5987;53.140;8.904;2023-07-13T12:57:21;18.40;99.90
11855;DHT22;5987;53.140;8.904;2023-07-13T13:00:29;18.60;99.90
11855;DHT22;5987;53.140;8.904;2023-07-13T13:07:08;18.90;99.90
11855;DHT22;5987;53.140;8.904;2023-07-13T13:10:13;19.00;99.90
11855;DHT22;5987;53.140;8.904;2023-07-13T13:13:17;18.90;99.90
11855;DHT22;5987;53.140;8.904;2023-07-13T13:16:23;19.00;99.90
11855;DHT22;5987;53.140;8.904;2023-07-13T13:19:35;19.10;99.90
11855;DHT22;5987;53.140;8.904;2023-07-13T13:22:40;19.40;99.90
11855;DHT22;5987;53.140;8.904;2023-07-13T13:25:45;19.50;99.90
11855;DHT22;5987;53.140;8.904;2023-07-13T13:28:50;19.70;99.90
11855;DHT22;5987;53.140;8.904;2023-07-13T13:31:55;20.00;99.90
11855;DHT22;5987;53.140;8.904;2023-07-13T13:34:59;20.20;99.90
11855;DHT22;5987;53.140;8.904;2023-07-13T13:38:10;20.20;99.90
11855;DHT22;5987;53.140;8.904;2023-07-13T13:41:16;20.30;99.90
11855;DHT22;5987;53.140;8.904;2023-07-13T13:44:21;20.40;99.90
11855;DHT22;5987;53.140;8.904;2023-07-13T13:47:30;20.50;99.90
11855;DHT22;5987;53.140;8.904;2023-07-13T13:50:37;20.70;99.90
11855;DHT22;5987;53.140;8.904;2023-07-13T13:53:42;20.80;99.90
11855;DHT22;5987;53.140;8.904;2023-07-13T13:56:49;20.70;99.90
11855;DHT22;5987;53.140;8.904;2023-07-13T13:59:55;20.80;99.90
11855;DHT22;5987;53.140;8.904;2023-07-13T14:02:58;20.80;99.90
11855;DHT22;5987;53.140;8.904;2023-07-13T14:06:02;20.80;99.90
11855;DHT22;5987;53.140;8.904;2023-07-13T14:09:09;20.70;99.90
11855;DHT22;5987;53.140;8.904;2023-07-13T14:12:14;20.80;99.90
11855;DHT22;5987;53.140;8.904;2023-07-13T14:15:24;21.00;99.90
11855;DHT22;5987;53.140;8.904;2023-07-13T14:18:33;21.10;99.90
11855;DHT22;5987;53.140;8.904;2023-07-13T14:21:37;21.20;99.90
11855;DHT22;5987;53.140;8.904;2023-07-13T14:24:42;21.40;99.90
11855;DHT22;5987;53.140;8.904;2023-07-13T14:27:49;21.40;99.90
11855;DHT22;5987;53.140;8.904;2023-07-13T14:30:57;21.90;99.90
11855;DHT22;5987;53.140;8.904;2023-07-13T14:34:01;22.20;99.90
11855;DHT22;5987;53.140;8.904;2023-07-13T14:37:08;22.30;99.90
11855;DHT22;5987;53.140;8.904;2023-07-13T14:40:28;22.40;99.90
11855;DHT22;5987;53.140;8.904;2023-07-13T14:43:33;22.40;99.90
11855;DHT22;5987;53.140;8.904;2023-07-13T14:46:37;22.30;99.90
11855;DHT22;5987;53.140;8.904;2023-07-13T14:49:44;22.00;99.90
11855;DHT22;5987;53.140;8.904;2023-07-13T14:52:50;21.90;99.90
11855;DHT22;5987;53.140;8.904;2023-07-13T14:55:55;21.30;99.90
11855;DHT22;5987;53.140;8.904;2023-07-13T14:58:58;20.40;99.90
11855;DHT22;5987;53.140;8.904;2023-07-13T15:02:02;19.70;99.90
11855;DHT22;5987;53.140;8.904;2023-07-13T15:05:18;19.10;99.90
11855;DHT22;5987;53.140;8.904;2023-07-13T15:08:24;18.90;99.90
11855;DHT22;5987;53.140;8.904;2023-07-13T15:11:29;18.80;99.90
11855;DHT22;5987;53.140;8.904;2023-07-13T15:14:32;18.60;99.90
11855;DHT22;5987;53.140;8.904;2023-07-13T15:17:40;19.00;99.90
11855;DHT22;5987;53.140;8.904;2023-07-13T15:20:47;17.80;99.90
11855;DHT22;5987;53.140;8.904;2023-07-13T15:23:51;17.40;99.90
11855;DHT22;5987;53.140;8.904;2023-07-13T15:26:57;17.30;99.90
11855;DHT22;5987;53.140;8.904;2023-07-13T15:30:01;17.10;99.90
11855;DHT22;5987;53.140;8.904;2023-07-13T15:33:14;17.10;99.90
11855;DHT22;5987;53.140;8.904;2023-07-13T15:36:20;17.20;99.90
11855;DHT22;5987;53.140;8.904;2023-07-13T15:39:25;17.20;99.90
11855;DHT22;5987;53.140;8.904;2023-07-13T15:42:30;17.30;99.90
11855;DHT22;5987;53.140;8.904;2023-07-13T15:45:37;17.30;99.90
11855;DHT22;5987;53.140;8.904;2023-07-13T15:48:41;17.40;99.90
11855;DHT22;5987;53.140;8.904;2023-07-13T15:51:47;17.40;99.90
11855;DHT22;5987;53.140;8.904;2023-07-13T15:55:01;17.30;99.90
11855;DHT22;5987;53.140;8.904;2023-07-13T15:58:11;17.20;99.90
11855;DHT22;5987;53.140;8.904;2023-07-13T16:01:17;17.30;99.90
11855;DHT22;5987;53.140;8.904;2023-07-13T16:04:22;17.50;99.90
11855;DHT22;5987;53.140;8.904;2023-07-13T16:07:26;17.80;99.90
11855;DHT22;5987;53.140;8.904;2023-07-13T16:10:37;17.90;99.90
11855;DHT22;5987;53.140;8.904;2023-07-13T16:13:44;17.80;99.90
11855;DHT22;5987;53.140;8.904;2023-07-13T16:16:48;17.70;99.90
11855;DHT22;5987;53.140;8.904;2023-07-13T16:19:53;17.60;99.90
11855;DHT22;5987;53.140;8.904;2023-07-13T16:22:58;17.70;99.90
11855;DHT22;5987;53.140;8.904;2023-07-13T16:26:19;17.50;99.90
11855;DHT22;5987;53.140;8.904;2023-07-13T16:29:30;17.40;99.90
11855;DHT22;5987;53.140;8.904;2023-07-13T16:32:35;17.10;99.90
11855;DHT22;5987;53.140;8.904;2023-07-13T16:35:40;16.80;99.90
11855;DHT22;5987;53.140;8.904;2023-07-13T16:38:45;16.90;99.90
11855;DHT22;5987;53.140;8.904;2023-07-13T16:41:48;17.10;99.90
11855;DHT22;5987;53.140;8.904;2023-07-13T16:44:54;17.30;99.90
11855;DHT22;5987;53.140;8.904;2023-07-13T16:47:59;17.30;99.90
11855;DHT22;5987;53.140;8.904;2023-07-13T16:51:03;17.10;99.90
11855;DHT22;5987;53.140;8.904;2023-07-13T16:54:08;16.90;99.90
11855;DHT22;5987;53.140;8.904;2023-07-13T16:57:13;16.70;99.90
11855;DHT22;5987;53.140;8.904;2023-07-13T17:00:23;17.00;99.90
11855;DHT22;5987;53.140;8.904;2023-07-13T17:03:29;17.30;99.90
11855;DHT22;5987;53.140;8.904;2023-07-13T17:06:35;17.10;99.90
11855;DHT22;5987;53.140;8.904;2023-07-13T17:09:39;17.20;99.90
11855;DHT22;5987;53.140;8.904;2023-07-13T17:12:47;17.60;99.90
11855;DHT22;5987;53.140;8.904;2023-07-13T17:15:54;17.70;99.90
11855;DHT22;5987;53.140;8.904;2023-07-13T17:18:59;18.00;99.90
11855;DHT22;5987;53.140;8.904;2023-07-13T17:22:03;18.10;99.90
11855;DHT22;5987;53.140;8.904;2023-07-13T17:25:10;18.10;99.90
11855;DHT22;5987;53.140;8.904;2023-07-13T17:28:16;18.20;99.90
11855;DHT22;5987;53.140;8.904;2023-07-13T17:31:24;18.20;99.90
11855;DHT22;5987;53.140;8.904;2023-07-13T17:34:28;18.10;99.90
11855;DHT22;5987;53.140;8.904;2023-07-13T17:37:32;18.10;99.90
11855;DHT22;5987;53.140;8.904;2023-07-13T17:40:36;18.30;99.90
11855;DHT22;5987;53.140;8.904;2023-07-13T17:43:42;18.20;99.90
11855;DHT22;5987;53.140;8.904;2023-07-13T17:46:49;18.10;99.90
11855;DHT22;5987;53.140;8.904;2023-07-13T17:49:54;18.00;99.90
11855;DHT22;5987;53.140;8.904;2023-07-13T17:52:58;18.10;99.90
11855;DHT22;5987;53.140;8.904;2023-07-13T17:56:04;18.20;99.90
11855;DHT22;5987;53.140;8.904;2023-07-13T17:59:08;18.20;99.90
11855;DHT22;5987;53.140;8.904;2023-07-13T18:02:16;18.10;99.90
11855;DHT22;5987;53.140;8.904;2023-07-13T18:05:23;18.30;99.90
11855;DHT22;5987;53.140;8.904;2023-07-13T18:08:30;18.40;99.90
11855;DHT22;5987;53.140;8.904;2023-07-13T18:11:35;18.40;99.90
11855;DHT22;5987;53.140;8.904;2023-07-13T18:14:39;18.30;99.90
11855;DHT22;5987;53.140;8.904;2023-07-13T18:17:48;18.30;99.90
11855;DHT22;5987;53.140;8.904;2023-07-13T18:20:53;18.30;99.90
11855;DHT22;5987;53.140;8.904;2023-07-13T18:23:58;18.20;99.90
11855;DHT22;5987;53.140;8.904;2023-07-13T18:27:03;18.00;99.90
11855;DHT22;5987;53.140;8.904;2023-07-13T18:30:10;17.90;99.90
11855;DHT22;5987;53.140;8.904;2023-07-13T18:33:21;18.00;99.90
11855;DHT22;5987;53.140;8.904;2023-07-13T18:36:27;18.00;99.90
11855;DHT22;5987;53.140;8.904;2023-07-13T18:39:31;17.90;99.90
11855;DHT22;5987;53.140;8.904;2023-07-13T18:42:34;17.90;99.90
11855;DHT22;5987;53.140;8.904;2023-07-13T18:45:38;17.90;99.90
11855;DHT22;5987;53.140;8.904;2023-07-13T18:48:44;17.90;99.90
11855;DHT22;5987;53.140;8.904;2023-07-13T18:51:49;17.80;99.90
11855;DHT22;5987;53.140;8.904;2023-07-13T18:54:53;17.70;99.90
11855;DHT22;5987;53.140;8.904;2023-07-13T18:57:56;17.60;99.90
11855;DHT22;5987;53.140;8.904;2023-07-13T19:01:01;17.50;99.90
11855;DHT22;5987;53.140;8.904;2023-07-13T19:04:29;17.60;99.90
11855;DHT22;5987;53.140;8.904;2023-07-13T19:07:34;17.30;99.90
11855;DHT22;5987;53.140;8.904;2023-07-13T19:10:38;17.20;99.90
11855;DHT22;5987;53.140;8.904;2023-07-13T19:13:42;17.00;99.90
11855;DHT22;5987;53.140;8.904;2023-07-13T19:16:47;17.00;99.90
11855;DHT22;5987;53.140;8.904;2023-07-13T19:19:52;17.00;99.90
11855;DHT22;5987;53.140;8.904;2023-07-13T19:23:01;16.90;99.90
11855;DHT22;5987;53.140;8.904;2023-07-13T19:26:15;16.90;99.90
11855;DHT22;5987;53.140;8.904;2023-07-13T19:29:26;16.90;99.90
11855;DHT22;5987;53.140;8.904;2023-07-13T19:32:31;17.00;99.90
11855;DHT22;5987;53.140;8.904;2023-07-13T19:35:36;17.00;99.90
11855;DHT22;5987;53.140;8.904;2023-07-13T19:38:41;17.00;99.90
11855;DHT22;5987;53.140;8.904;2023-07-13T19:41:45;17.30;99.90
11855;DHT22;5987;53.140;8.904;2023-07-13T19:44:50;17.30;99.90
11855;DHT22;5987;53.140;8.904;2023-07-13T19:47:56;17.10;99.90
11855;DHT22;5987;53.140;8.904;2023-07-13T19:51:02;17.20;99.90
11855;DHT22;5987;53.140;8.904;2023-07-13T19:54:11;17.20;99.90
11855;DHT22;5987;53.140;8.904;2023-07-13T19:57:17;17.10;99.90
11855;DHT22;5987;53.140;8.904;2023-07-13T20:00:24;16.90;99.90
11855;DHT22;5987;53.140;8.904;2023-07-13T20:03:30;16.90;99.90
11855;DHT22;5987;53.140;8.904;2023-07-13T20:06:35;17.00;99.90